EGKKLXGB

Guest
Details From EGKK - London Gatwick
To LXGB - Gibraltar
Flight Number -
Tags Generated
Created
Modified
Stats Distance 929 nm / 1,720 km
Max Altitude 0 ft / 0 m
Waypoints 6
Social Downloads 15
Likes 0
Share VATSIM

Download

Looking for another format? Having issues loading an existing format? Contact us
Advertisement - Login to hide

Notes

Generated

Route

EGKK NITEM SOMAN TEO BRIKE LXGB

ID Type Via Altitude Latitude Longitude Leg Dist Tot Dist Heading (true) Name
O EGKK APT - 0 ft / 0 m 51.14691˚ -0.21257˚ - 0 nm - -
NITEM FIX - 0 ft / 0 m 47.43028˚ -1.80639˚ 231 nm 231 nm 196° / 195° -
SOMAN FIX - 0 ft / 0 m 43.33654˚ -3.27174˚ 253 nm 485 nm 195° / 194° -
TEO NDB - 0 ft / 0 m 39.97278˚ -4.34608˚ 207 nm 692 nm 194° / 193° TOLEDO NDB
BRIKE FIX - 0 ft / 0 m 36.50478˚ -5.41645˚ 214 nm 907 nm 194° / 193° -
O LXGB APT - 0 ft / 0 m 36.15080˚ -5.35977˚ 21 nm 928 nm 173° / 173° -

Altitude Profile

Advertisement - Login to hide

Weather


0- 5 10 15 20 25 30 35+ Temperature / ° C

Clouds and Precipitation
Forecast for 2018-05-27 12:00 UTC. Updated 5 hours ago

Ground ~20,000 ft ~40,000 ft Winds

EGKK

Details ICAO EGKK (LGW)
Name London Gatwick
Region United Kingdom
Timezone Europe/London (UTC+1.0)
Stats Elevation 196 ft / 60 m (AMSL)
Location 51.148753° -0.192472°
Runways 2
Magnetic Variation 0.367° W

METAR

EGKK 271620Z 19007KT 170V240 CAVOK 25/14 Q1015

Decode

TAF

TAF TAF EGKK 271051Z 2712/2818 08006KT 9999 FEW025 PROB40 TEMPO 2712/2722 4000 TSRAGR BKN014 BKN040CB BECMG 2800/2803 8000 PROB30 2801/2808 4000 BR BECMG 2808/2811 9999 PROB40 TEMPO 2813/2818 4000 TSRA BKN014 BKN040CB

Decode

Departure Runways

ID Width Length Bearing (true) Bearing (mag) Surface Threshold Offset Overrun Length
08L 148 ft / 45 m 8,377 ft / 2,553 m 77.69° 78.06° Asphalt 1,053 ft / 321 m 0 ft / 0 m
08R 148 ft / 45 m 10,341 ft / 3,152 m 77.59° 77.96° Asphalt 1,289 ft / 393 m 0 ft / 0 m
26L 148 ft / 45 m 10,341 ft / 3,152 m 257.63° 258.00° Asphalt 879 ft / 268 m 600 ft / 183 m
26R 148 ft / 45 m 8,377 ft / 2,553 m 257.71° 258.08° Asphalt 1,365 ft / 416 m 0 ft / 0 m

LXGB

Details ICAO LXGB (GIB)
Name Gibraltar
Region Gibralter
Timezone Europe/Gibraltar (UTC+2.0)
Stats Elevation 15 ft / 5 m (AMSL)
Location 36.151209° -5.349664°
Runways 1
Magnetic Variation 1.071° W

METAR

LXGB 271550Z 27014KT 9999 FEW040 22/13 Q1015 NOSIG

Decode

TAF

Not found

Destination Runways

ID Width Length Bearing (true) Bearing (mag) Surface Threshold Offset Overrun Length
27 151 ft / 46 m 5,992 ft / 1,826 m 267.56° 268.63° Asphalt 367 ft / 112 m 89 ft / 27 m
9 151 ft / 46 m 5,992 ft / 1,826 m 87.54° 88.61° Asphalt 299 ft / 91 m 52 ft / 16 m

Popular Alternatives